sensor_id;sensor_type;location;lat;lon;timestamp;temperature;humidity
15879;DHT22;61999;51.514;14.614;2023-02-03T00:01:46;-0.70;63.70
15879;DHT22;61999;51.514;14.614;2023-02-03T00:04:14;-0.80;64.00
15879;DHT22;61999;51.514;14.614;2023-02-03T00:06:43;-0.90;64.50
15879;DHT22;61999;51.514;14.614;2023-02-03T00:09:13;-1.00;65.00
15879;DHT22;61999;51.514;14.614;2023-02-03T00:11:43;-1.20;65.60
15879;DHT22;61999;51.514;14.614;2023-02-03T00:14:11;-1.30;66.20
15879;DHT22;61999;51.514;14.614;2023-02-03T00:16:39;-1.50;66.80
15879;DHT22;61999;51.514;14.614;2023-02-03T00:19:07;-1.70;67.70
15879;DHT22;61999;51.514;14.614;2023-02-03T00:21:35;-1.80;68.10
15879;DHT22;61999;51.514;14.614;2023-02-03T00:24:03;-1.70;68.50
15879;DHT22;61999;51.514;14.614;2023-02-03T00:26:33;-1.80;68.50
15879;DHT22;61999;51.514;14.614;2023-02-03T00:29:01;-1.80;69.00
15879;DHT22;61999;51.514;14.614;2023-02-03T00:31:29;-1.90;69.40
15879;DHT22;61999;51.514;14.614;2023-02-03T00:33:57;-2.00;69.70
15879;DHT22;61999;51.514;14.614;2023-02-03T00:36:26;-2.00;69.80
15879;DHT22;61999;51.514;14.614;2023-02-03T00:38:54;-2.00;70.00
15879;DHT22;61999;51.514;14.614;2023-02-03T00:41:23;-2.00;70.10
15879;DHT22;61999;51.514;14.614;2023-02-03T00:43:57;-2.00;70.10
15879;DHT22;61999;51.514;14.614;2023-02-03T00:46:25;-2.10;70.00
15879;DHT22;61999;51.514;14.614;2023-02-03T00:48:53;-2.10;70.20
15879;DHT22;61999;51.514;14.614;2023-02-03T00:51:21;-2.10;70.00
15879;DHT22;61999;51.514;14.614;2023-02-03T00:53:49;-2.20;69.60
15879;DHT22;61999;51.514;14.614;2023-02-03T00:56:17;-1.90;70.00
15879;DHT22;61999;51.514;14.614;2023-02-03T00:58:45;-1.60;69.20
15879;DHT22;61999;51.514;14.614;2023-02-03T01:01:15;-1.20;68.00
15879;DHT22;61999;51.514;14.614;2023-02-03T01:03:43;-1.20;67.80
15879;DHT22;61999;51.514;14.614;2023-02-03T01:06:13;-1.30;67.90
15879;DHT22;61999;51.514;14.614;2023-02-03T01:08:44;-1.30;68.00
15879;DHT22;61999;51.514;14.614;2023-02-03T01:11:14;-1.40;67.90
15879;DHT22;61999;51.514;14.614;2023-02-03T01:13:43;-1.40;68.20
15879;DHT22;61999;51.514;14.614;2023-02-03T01:16:18;-1.30;67.90
15879;DHT22;61999;51.514;14.614;2023-02-03T01:18:47;-1.30;68.30
15879;DHT22;61999;51.514;14.614;2023-02-03T01:21:19;-1.40;68.40
15879;DHT22;61999;51.514;14.614;2023-02-03T01:23:50;-1.40;68.40
15879;DHT22;61999;51.514;14.614;2023-02-03T01:26:20;-1.40;68.60
15879;DHT22;61999;51.514;14.614;2023-02-03T01:28:51;-1.60;69.00
15879;DHT22;61999;51.514;14.614;2023-02-03T01:31:23;-1.70;69.30
15879;DHT22;61999;51.514;14.614;2023-02-03T01:33:53;-1.70;69.50
15879;DHT22;61999;51.514;14.614;2023-02-03T01:36:24;-1.80;69.90
15879;DHT22;61999;51.514;14.614;2023-02-03T01:38:53;-1.90;70.00
15879;DHT22;61999;51.514;14.614;2023-02-03T01:41:25;-2.00;70.50
15879;DHT22;61999;51.514;14.614;2023-02-03T01:43:56;-1.90;70.20
15879;DHT22;61999;51.514;14.614;2023-02-03T01:46:31;-1.90;70.40
15879;DHT22;61999;51.514;14.614;2023-02-03T01:49:05;-1.60;69.80
15879;DHT22;61999;51.514;14.614;2023-02-03T01:51:39;-1.60;69.60
15879;DHT22;61999;51.514;14.614;2023-02-03T01:54:13;-1.60;69.60
15879;DHT22;61999;51.514;14.614;2023-02-03T01:56:49;-1.70;69.50
15879;DHT22;61999;51.514;14.614;2023-02-03T01:59:24;-1.60;69.60
15879;DHT22;61999;51.514;14.614;2023-02-03T02:01:54;-1.60;69.60
15879;DHT22;61999;51.514;14.614;2023-02-03T02:04:28;-1.60;69.40
15879;DHT22;61999;51.514;14.614;2023-02-03T02:07:03;-1.60;69.30
15879;DHT22;61999;51.514;14.614;2023-02-03T02:09:33;-1.60;69.30
15879;DHT22;61999;51.514;14.614;2023-02-03T02:12:01;-1.50;69.50
15879;DHT22;61999;51.514;14.614;2023-02-03T02:14:30;-1.40;68.90
15879;DHT22;61999;51.514;14.614;2023-02-03T02:17:05;-1.40;69.00
15879;DHT22;61999;51.514;14.614;2023-02-03T02:19:56;-1.50;69.00
15879;DHT22;61999;51.514;14.614;2023-02-03T02:22:53;-1.80;68.60
15879;DHT22;61999;51.514;14.614;2023-02-03T02:26:00;-1.70;69.80
15879;DHT22;61999;51.514;14.614;2023-02-03T02:29:00;-1.30;69.00
15879;DHT22;61999;51.514;14.614;2023-02-03T02:32:00;-1.10;68.40
15879;DHT22;61999;51.514;14.614;2023-02-03T02:34:45;-1.20;68.20
15879;DHT22;61999;51.514;14.614;2023-02-03T02:37:30;-1.30;68.70
15879;DHT22;61999;51.514;14.614;2023-02-03T02:40:09;-1.30;68.60
15879;DHT22;61999;51.514;14.614;2023-02-03T02:42:57;-1.00;68.40
15879;DHT22;61999;51.514;14.614;2023-02-03T02:45:31;-1.00;68.30
15879;DHT22;61999;51.514;14.614;2023-02-03T02:48:10;-0.90;68.30
15879;DHT22;61999;51.514;14.614;2023-02-03T02:50:45;-0.90;68.80
15879;DHT22;61999;51.514;14.614;2023-02-03T02:53:19;-1.20;69.00
15879;DHT22;61999;51.514;14.614;2023-02-03T02:55:52;-1.20;70.10
15879;DHT22;61999;51.514;14.614;2023-02-03T02:58:24;-1.20;70.40
15879;DHT22;61999;51.514;14.614;2023-02-03T03:00:55;-1.00;70.00
15879;DHT22;61999;51.514;14.614;2023-02-03T03:03:26;-1.20;70.60
15879;DHT22;61999;51.514;14.614;2023-02-03T03:05:56;-1.30;70.00
15879;DHT22;61999;51.514;14.614;2023-02-03T03:08:35;-1.20;71.00
15879;DHT22;61999;51.514;14.614;2023-02-03T03:11:07;-1.30;71.50
15879;DHT22;61999;51.514;14.614;2023-02-03T03:13:41;-1.40;71.60
15879;DHT22;61999;51.514;14.614;2023-02-03T03:16:15;-1.40;71.80
15879;DHT22;61999;51.514;14.614;2023-02-03T03:18:52;-1.30;71.30
15879;DHT22;61999;51.514;14.614;2023-02-03T03:21:25;-1.20;71.20
15879;DHT22;61999;51.514;14.614;2023-02-03T03:24:00;-1.30;71.30
15879;DHT22;61999;51.514;14.614;2023-02-03T03:26:37;-1.50;71.80
15879;DHT22;61999;51.514;14.614;2023-02-03T03:29:14;-1.80;72.50
15879;DHT22;61999;51.514;14.614;2023-02-03T03:31:47;-2.10;73.40
15879;DHT22;61999;51.514;14.614;2023-02-03T03:34:17;-2.40;74.50
15879;DHT22;61999;51.514;14.614;2023-02-03T03:36:49;-2.50;75.40
15879;DHT22;61999;51.514;14.614;2023-02-03T03:39:27;-2.50;76.10
15879;DHT22;61999;51.514;14.614;2023-02-03T03:42:05;-2.50;76.20
15879;DHT22;61999;51.514;14.614;2023-02-03T03:44:43;-2.50;75.40
15879;DHT22;61999;51.514;14.614;2023-02-03T03:47:29;-2.30;75.50
15879;DHT22;61999;51.514;14.614;2023-02-03T03:50:04;-2.30;75.00
15879;DHT22;61999;51.514;14.614;2023-02-03T03:52:37;-2.40;74.80
15879;DHT22;61999;51.514;14.614;2023-02-03T03:55:09;-2.50;75.10
15879;DHT22;61999;51.514;14.614;2023-02-03T03:57:44;-2.20;75.10
15879;DHT22;61999;51.514;14.614;2023-02-03T04:00:19;-2.00;74.00
15879;DHT22;61999;51.514;14.614;2023-02-03T04:02:52;-2.10;73.70
15879;DHT22;61999;51.514;14.614;2023-02-03T04:05:26;-2.10;74.20
15879;DHT22;61999;51.514;14.614;2023-02-03T04:07:54;-1.90;73.50
15879;DHT22;61999;51.514;14.614;2023-02-03T04:10:33;-2.00;73.60
15879;DHT22;61999;51.514;14.614;2023-02-03T04:13:03;-2.10;74.90
15879;DHT22;61999;51.514;14.614;2023-02-03T04:15:32;-2.00;75.50
15879;DHT22;61999;51.514;14.614;2023-02-03T04:18:01;-1.70;74.70
15879;DHT22;61999;51.514;14.614;2023-02-03T04:20:32;-1.80;73.70
15879;DHT22;61999;51.514;14.614;2023-02-03T04:23:00;-1.90;74.80
15879;DHT22;61999;51.514;14.614;2023-02-03T04:25:28;-1.90;75.10
15879;DHT22;61999;51.514;14.614;2023-02-03T04:27:56;-1.90;74.80
15879;DHT22;61999;51.514;14.614;2023-02-03T04:30:25;-1.80;75.00
15879;DHT22;61999;51.514;14.614;2023-02-03T04:32:54;-1.70;74.60
15879;DHT22;61999;51.514;14.614;2023-02-03T04:35:22;-1.60;73.50
15879;DHT22;61999;51.514;14.614;2023-02-03T04:37:52;-1.40;73.30
15879;DHT22;61999;51.514;14.614;2023-02-03T04:40:20;-1.50;73.70
15879;DHT22;61999;51.514;14.614;2023-02-03T04:42:48;-1.70;74.60
15879;DHT22;61999;51.514;14.614;2023-02-03T04:45:16;-1.60;74.60
15879;DHT22;61999;51.514;14.614;2023-02-03T04:47:50;-1.50;75.10
15879;DHT22;61999;51.514;14.614;2023-02-03T04:50:20;-1.20;74.10
15879;DHT22;61999;51.514;14.614;2023-02-03T04:52:49;-1.30;74.00
15879;DHT22;61999;51.514;14.614;2023-02-03T04:55:24;-1.30;74.00
15879;DHT22;61999;51.514;14.614;2023-02-03T04:57:54;-1.50;74.90
15879;DHT22;61999;51.514;14.614;2023-02-03T05:00:22;-1.70;75.80
15879;DHT22;61999;51.514;14.614;2023-02-03T05:02:51;-1.90;76.70
15879;DHT22;61999;51.514;14.614;2023-02-03T05:05:20;-1.80;76.80
15879;DHT22;61999;51.514;14.614;2023-02-03T05:07:48;-1.90;77.00
15879;DHT22;61999;51.514;14.614;2023-02-03T05:10:18;-1.90;77.50
15879;DHT22;61999;51.514;14.614;2023-02-03T05:12:46;-1.80;77.40
15879;DHT22;61999;51.514;14.614;2023-02-03T05:15:15;-1.90;77.70
15879;DHT22;61999;51.514;14.614;2023-02-03T05:17:43;-1.80;77.60
15879;DHT22;61999;51.514;14.614;2023-02-03T05:20:11;-1.90;78.00
15879;DHT22;61999;51.514;14.614;2023-02-03T05:22:39;-1.90;78.30
15879;DHT22;61999;51.514;14.614;2023-02-03T05:25:08;-1.80;78.10
15879;DHT22;61999;51.514;14.614;2023-02-03T05:27:38;-1.80;78.60
15879;DHT22;61999;51.514;14.614;2023-02-03T05:30:14;-1.80;79.20
15879;DHT22;61999;51.514;14.614;2023-02-03T05:32:42;-1.60;79.00
15879;DHT22;61999;51.514;14.614;2023-02-03T05:35:10;-1.70;79.40
15879;DHT22;61999;51.514;14.614;2023-02-03T05:37:38;-1.50;79.80
15879;DHT22;61999;51.514;14.614;2023-02-03T05:40:07;-1.50;80.00
15879;DHT22;61999;51.514;14.614;2023-02-03T05:42:55;-1.50;80.50
15879;DHT22;61999;51.514;14.614;2023-02-03T05:45:23;-1.50;81.10
15879;DHT22;61999;51.514;14.614;2023-02-03T05:47:51;-1.40;81.50
15879;DHT22;61999;51.514;14.614;2023-02-03T05:50:19;-1.40;81.90
15879;DHT22;61999;51.514;14.614;2023-02-03T05:52:48;-1.40;82.50
15879;DHT22;61999;51.514;14.614;2023-02-03T05:55:16;-1.30;83.40
15879;DHT22;61999;51.514;14.614;2023-02-03T05:57:44;-1.30;83.00
15879;DHT22;61999;51.514;14.614;2023-02-03T06:00:15;-0.90;82.60
15879;DHT22;61999;51.514;14.614;2023-02-03T06:02:43;-0.60;81.80
15879;DHT22;61999;51.514;14.614;2023-02-03T06:05:11;-0.40;81.20
15879;DHT22;61999;51.514;14.614;2023-02-03T06:07:39;-0.40;81.20
15879;DHT22;61999;51.514;14.614;2023-02-03T06:10:08;-0.30;80.80
15879;DHT22;61999;51.514;14.614;2023-02-03T06:12:37;-0.40;81.60
15879;DHT22;61999;51.514;14.614;2023-02-03T06:15:06;-0.40;81.80
15879;DHT22;61999;51.514;14.614;2023-02-03T06:17:36;-0.10;81.10
15879;DHT22;61999;51.514;14.614;2023-02-03T06:20:06;0.00;80.40
15879;DHT22;61999;51.514;14.614;2023-02-03T06:22:35;0.00;80.70
15879;DHT22;61999;51.514;14.614;2023-02-03T06:25:05;0.10;80.40
15879;DHT22;61999;51.514;14.614;2023-02-03T06:27:37;0.10;80.40
15879;DHT22;61999;51.514;14.614;2023-02-03T06:30:06;-0.10;80.80
15879;DHT22;61999;51.514;14.614;2023-02-03T06:32:40;-0.20;81.70
15879;DHT22;61999;51.514;14.614;2023-02-03T06:35:08;-0.20;82.40
15879;DHT22;61999;51.514;14.614;2023-02-03T06:37:36;0.10;81.50
15879;DHT22;61999;51.514;14.614;2023-02-03T06:40:06;0.30;80.60
15879;DHT22;61999;51.514;14.614;2023-02-03T06:42:34;0.30;80.80
15879;DHT22;61999;51.514;14.614;2023-02-03T06:45:03;0.40;80.20
15879;DHT22;61999;51.514;14.614;2023-02-03T06:47:31;0.30;80.30
15879;DHT22;61999;51.514;14.614;2023-02-03T06:50:01;0.30;81.00
15879;DHT22;61999;51.514;14.614;2023-02-03T06:52:29;0.40;80.50
15879;DHT22;61999;51.514;14.614;2023-02-03T06:54:57;0.40;80.50
15879;DHT22;61999;51.514;14.614;2023-02-03T06:57:25;0.50;80.50
15879;DHT22;61999;51.514;14.614;2023-02-03T06:59:53;0.60;80.10
15879;DHT22;61999;51.514;14.614;2023-02-03T07:02:21;0.30;80.70
15879;DHT22;61999;51.514;14.614;2023-02-03T07:04:50;0.10;81.60
15879;DHT22;61999;51.514;14.614;2023-02-03T07:07:20;0.10;82.00
15879;DHT22;61999;51.514;14.614;2023-02-03T07:09:48;0.20;82.00
15879;DHT22;61999;51.514;14.614;2023-02-03T07:12:16;0.20;82.10
15879;DHT22;61999;51.514;14.614;2023-02-03T07:14:44;0.20;82.10
15879;DHT22;61999;51.514;14.614;2023-02-03T07:17:13;0.10;82.60
15879;DHT22;61999;51.514;14.614;2023-02-03T07:19:41;0.10;82.40
15879;DHT22;61999;51.514;14.614;2023-02-03T07:22:11;0.10;82.30
15879;DHT22;61999;51.514;14.614;2023-02-03T07:24:41;0.10;82.60
15879;DHT22;61999;51.514;14.614;2023-02-03T07:27:09;0.20;82.80
15879;DHT22;61999;51.514;14.614;2023-02-03T07:29:37;0.20;82.10
15879;DHT22;61999;51.514;14.614;2023-02-03T07:32:05;0.20;82.90
15879;DHT22;61999;51.514;14.614;2023-02-03T07:34:33;0.20;82.60
15879;DHT22;61999;51.514;14.614;2023-02-03T07:37:02;0.10;83.10
15879;DHT22;61999;51.514;14.614;2023-02-03T07:39:30;0.40;82.40
15879;DHT22;61999;51.514;14.614;2023-02-03T07:42:00;0.40;82.50
15879;DHT22;61999;51.514;14.614;2023-02-03T07:44:28;0.50;82.50
15879;DHT22;61999;51.514;14.614;2023-02-03T07:46:56;0.60;81.80
15879;DHT22;61999;51.514;14.614;2023-02-03T07:49:25;0.70;81.40
15879;DHT22;61999;51.514;14.614;2023-02-03T07:51:53;0.60;81.50
15879;DHT22;61999;51.514;14.614;2023-02-03T07:54:22;0.70;81.30
15879;DHT22;61999;51.514;14.614;2023-02-03T07:56:50;0.80;80.80
15879;DHT22;61999;51.514;14.614;2023-02-03T07:59:19;0.80;81.10
15879;DHT22;61999;51.514;14.614;2023-02-03T08:01:48;0.90;80.50
15879;DHT22;61999;51.514;14.614;2023-02-03T08:04:16;1.00;80.50
15879;DHT22;61999;51.514;14.614;2023-02-03T08:06:45;1.00;80.30
15879;DHT22;61999;51.514;14.614;2023-02-03T08:09:13;1.00;80.50
15879;DHT22;61999;51.514;14.614;2023-02-03T08:11:41;0.90;80.20
15879;DHT22;61999;51.514;14.614;2023-02-03T08:14:10;0.70;81.30
15879;DHT22;61999;51.514;14.614;2023-02-03T08:16:41;0.50;81.70
15879;DHT22;61999;51.514;14.614;2023-02-03T08:19:09;0.40;82.80
15879;DHT22;61999;51.514;14.614;2023-02-03T08:21:37;0.40;82.80
15879;DHT22;61999;51.514;14.614;2023-02-03T08:24:06;0.30;83.00
15879;DHT22;61999;51.514;14.614;2023-02-03T08:26:34;0.40;83.00
15879;DHT22;61999;51.514;14.614;2023-02-03T08:29:04;0.30;83.20
15879;DHT22;61999;51.514;14.614;2023-02-03T08:31:35;0.20;83.60
15879;DHT22;61999;51.514;14.614;2023-02-03T08:34:07;0.10;83.80
15879;DHT22;61999;51.514;14.614;2023-02-03T08:36:37;0.20;84.40
15879;DHT22;61999;51.514;14.614;2023-02-03T08:39:08;0.40;84.10
15879;DHT22;61999;51.514;14.614;2023-02-03T08:41:39;0.30;83.30
15879;DHT22;61999;51.514;14.614;2023-02-03T08:44:09;0.30;83.60
15879;DHT22;61999;51.514;14.614;2023-02-03T08:46:38;0.20;83.90
15879;DHT22;61999;51.514;14.614;2023-02-03T08:49:12;0.20;84.40
15879;DHT22;61999;51.514;14.614;2023-02-03T08:51:45;0.20;83.90
15879;DHT22;61999;51.514;14.614;2023-02-03T08:54:16;-0.10;85.00
15879;DHT22;61999;51.514;14.614;2023-02-03T08:56:45;-0.10;85.40
15879;DHT22;61999;51.514;14.614;2023-02-03T08:59:14;-0.10;85.60
15879;DHT22;61999;51.514;14.614;2023-02-03T09:01:45;-0.20;85.90
15879;DHT22;61999;51.514;14.614;2023-02-03T09:04:18;-0.10;86.10
15879;DHT22;61999;51.514;14.614;2023-02-03T09:06:53;0.00;85.50
15879;DHT22;61999;51.514;14.614;2023-02-03T09:09:25;-0.10;85.90
15879;DHT22;61999;51.514;14.614;2023-02-03T09:12:00;0.00;86.00
15879;DHT22;61999;51.514;14.614;2023-02-03T09:14:35;0.20;85.00
15879;DHT22;61999;51.514;14.614;2023-02-03T09:17:06;0.20;84.70
15879;DHT22;61999;51.514;14.614;2023-02-03T09:19:38;0.10;85.50
15879;DHT22;61999;51.514;14.614;2023-02-03T09:22:07;0.00;85.50
15879;DHT22;61999;51.514;14.614;2023-02-03T09:24:38;0.00;85.60
15879;DHT22;61999;51.514;14.614;2023-02-03T09:27:08;0.20;85.80
15879;DHT22;61999;51.514;14.614;2023-02-03T09:29:41;0.30;84.60
15879;DHT22;61999;51.514;14.614;2023-02-03T09:32:11;0.20;85.50
15879;DHT22;61999;51.514;14.614;2023-02-03T09:34:42;0.30;84.90
15879;DHT22;61999;51.514;14.614;2023-02-03T09:37:13;0.20;85.40
15879;DHT22;61999;51.514;14.614;2023-02-03T09:39:41;0.30;84.70
15879;DHT22;61999;51.514;14.614;2023-02-03T09:42:27;0.40;84.90
15879;DHT22;61999;51.514;14.614;2023-02-03T09:45:15;0.40;84.80
15879;DHT22;61999;51.514;14.614;2023-02-03T09:47:57;0.10;84.90
15879;DHT22;61999;51.514;14.614;2023-02-03T09:50:36;-0.10;86.30
15879;DHT22;61999;51.514;14.614;2023-02-03T09:53:18;0.00;86.80
15879;DHT22;61999;51.514;14.614;2023-02-03T09:55:54;0.20;85.90
15879;DHT22;61999;51.514;14.614;2023-02-03T09:58:28;0.20;85.70
15879;DHT22;61999;51.514;14.614;2023-02-03T10:01:07;0.10;85.90
15879;DHT22;61999;51.514;14.614;2023-02-03T10:03:46;0.10;86.30
15879;DHT22;61999;51.514;14.614;2023-02-03T10:06:30;0.10;86.40
15879;DHT22;61999;51.514;14.614;2023-02-03T10:09:19;0.20;86.30
15879;DHT22;61999;51.514;14.614;2023-02-03T10:12:21;0.40;85.60
15879;DHT22;61999;51.514;14.614;2023-02-03T10:15:14;0.50;85.00
15879;DHT22;61999;51.514;14.614;2023-02-03T10:18:04;0.60;84.30
15879;DHT22;61999;51.514;14.614;2023-02-03T10:20:39;0.50;84.40
15879;DHT22;61999;51.514;14.614;2023-02-03T10:23:18;0.50;84.60
15879;DHT22;61999;51.514;14.614;2023-02-03T10:25:55;0.30;85.00
15879;DHT22;61999;51.514;14.614;2023-02-03T10:28:31;0.20;85.90
15879;DHT22;61999;51.514;14.614;2023-02-03T10:31:31;0.30;85.80
15879;DHT22;61999;51.514;14.614;2023-02-03T10:34:09;0.40;85.40
15879;DHT22;61999;51.514;14.614;2023-02-03T10:36:52;0.40;85.10
15879;DHT22;61999;51.514;14.614;2023-02-03T10:39:32;0.40;85.10
15879;DHT22;61999;51.514;14.614;2023-02-03T10:42:10;0.40;85.00
15879;DHT22;61999;51.514;14.614;2023-02-03T10:44:46;0.40;85.10
15879;DHT22;61999;51.514;14.614;2023-02-03T10:47:24;0.40;85.40
15879;DHT22;61999;51.514;14.614;2023-02-03T10:49:56;0.30;85.70
15879;DHT22;61999;51.514;14.614;2023-02-03T10:52:28;0.30;86.40
15879;DHT22;61999;51.514;14.614;2023-02-03T10:55:04;0.60;85.00
15879;DHT22;61999;51.514;14.614;2023-02-03T10:57:37;0.60;84.30
15879;DHT22;61999;51.514;14.614;2023-02-03T11:00:21;0.60;84.70
15879;DHT22;61999;51.514;14.614;2023-02-03T11:03:04;0.40;85.00
15879;DHT22;61999;51.514;14.614;2023-02-03T11:05:41;0.20;86.10
15879;DHT22;61999;51.514;14.614;2023-02-03T11:08:14;0.20;86.60
15879;DHT22;61999;51.514;14.614;2023-02-03T11:10:45;0.30;86.60
15879;DHT22;61999;51.514;14.614;2023-02-03T11:13:20;0.30;86.20
15879;DHT22;61999;51.514;14.614;2023-02-03T11:15:58;0.40;85.60
15879;DHT22;61999;51.514;14.614;2023-02-03T11:18:43;0.20;86.90
15879;DHT22;61999;51.514;14.614;2023-02-03T11:21:20;0.20;87.10
15879;DHT22;61999;51.514;14.614;2023-02-03T11:23:56;0.40;86.30
15879;DHT22;61999;51.514;14.614;2023-02-03T11:26:34;0.40;86.10
15879;DHT22;61999;51.514;14.614;2023-02-03T11:29:15;0.30;86.10
15879;DHT22;61999;51.514;14.614;2023-02-03T11:31:52;0.20;87.00
15879;DHT22;61999;51.514;14.614;2023-02-03T11:34:27;0.40;86.50
15879;DHT22;61999;51.514;14.614;2023-02-03T11:37:22;0.30;87.10
15879;DHT22;61999;51.514;14.614;2023-02-03T11:40:21;0.60;86.60
15879;DHT22;61999;51.514;14.614;2023-02-03T11:43:04;0.90;85.10
15879;DHT22;61999;51.514;14.614;2023-02-03T11:45:47;1.10;84.30
15879;DHT22;61999;51.514;14.614;2023-02-03T11:48:26;1.10;83.50
15879;DHT22;61999;51.514;14.614;2023-02-03T11:51:10;1.10;83.70
15879;DHT22;61999;51.514;14.614;2023-02-03T11:54:04;1.10;83.00
15879;DHT22;61999;51.514;14.614;2023-02-03T11:56:58;1.00;83.60
15879;DHT22;61999;51.514;14.614;2023-02-03T12:00:02;1.10;83.80
15879;DHT22;61999;51.514;14.614;2023-02-03T12:03:04;1.10;83.90
15879;DHT22;61999;51.514;14.614;2023-02-03T12:06:10;1.10;83.90
15879;DHT22;61999;51.514;14.614;2023-02-03T12:09:03;1.00;84.00
15879;DHT22;61999;51.514;14.614;2023-02-03T12:12:04;0.80;85.40
15879;DHT22;61999;51.514;14.614;2023-02-03T12:14:54;0.80;86.00
15879;DHT22;61999;51.514;14.614;2023-02-03T12:17:44;0.90;85.70
15879;DHT22;61999;51.514;14.614;2023-02-03T12:20:41;1.10;85.00
15879;DHT22;61999;51.514;14.614;2023-02-03T12:23:34;1.00;85.30
15879;DHT22;61999;51.514;14.614;2023-02-03T12:26:18;1.10;85.80
15879;DHT22;61999;51.514;14.614;2023-02-03T12:28:56;1.20;84.90
15879;DHT22;61999;51.514;14.614;2023-02-03T12:31:35;1.20;84.70
15879;DHT22;61999;51.514;14.614;2023-02-03T12:34:14;1.10;82.20
15879;DHT22;61999;51.514;14.614;2023-02-03T12:36:54;0.90;80.90
15879;DHT22;61999;51.514;14.614;2023-02-03T12:39:33;0.80;79.00
15879;DHT22;61999;51.514;14.614;2023-02-03T12:42:16;0.70;78.30
15879;DHT22;61999;51.514;14.614;2023-02-03T12:44:51;0.60;80.90
15879;DHT22;61999;51.514;14.614;2023-02-03T12:47:28;0.60;81.90
15879;DHT22;61999;51.514;14.614;2023-02-03T12:50:05;0.90;79.30
15879;DHT22;61999;51.514;14.614;2023-02-03T12:52:45;0.90;79.60
15879;DHT22;61999;51.514;14.614;2023-02-03T12:55:23;1.00;80.20
15879;DHT22;61999;51.514;14.614;2023-02-03T12:58:01;1.10;79.80
15879;DHT22;61999;51.514;14.614;2023-02-03T13:00:42;1.20;80.00
15879;DHT22;61999;51.514;14.614;2023-02-03T13:03:18;1.40;79.60
15879;DHT22;61999;51.514;14.614;2023-02-03T13:05:58;1.50;78.00
15879;DHT22;61999;51.514;14.614;2023-02-03T13:08:37;1.50;76.30
15879;DHT22;61999;51.514;14.614;2023-02-03T13:11:14;1.30;76.40
15879;DHT22;61999;51.514;14.614;2023-02-03T13:13:53;1.20;76.20
15879;DHT22;61999;51.514;14.614;2023-02-03T13:16:36;1.20;77.50
15879;DHT22;61999;51.514;14.614;2023-02-03T13:19:14;1.30;76.90
15879;DHT22;61999;51.514;14.614;2023-02-03T13:21:48;1.40;77.00
15879;DHT22;61999;51.514;14.614;2023-02-03T13:24:16;1.50;76.40
15879;DHT22;61999;51.514;14.614;2023-02-03T13:26:58;1.50;74.70
15879;DHT22;61999;51.514;14.614;2023-02-03T13:29:59;1.50;77.20
15879;DHT22;61999;51.514;14.614;2023-02-03T13:32:51;1.60;75.50
15879;DHT22;61999;51.514;14.614;2023-02-03T13:35:51;1.70;78.50
15879;DHT22;61999;51.514;14.614;2023-02-03T13:38:49;2.00;75.60
15879;DHT22;61999;51.514;14.614;2023-02-03T13:41:41;2.20;76.20
15879;DHT22;61999;51.514;14.614;2023-02-03T13:44:18;2.40;72.70
15879;DHT22;61999;51.514;14.614;2023-02-03T13:46:49;2.40;73.30
15879;DHT22;61999;51.514;14.614;2023-02-03T13:49:23;2.50;72.40
15879;DHT22;61999;51.514;14.614;2023-02-03T13:51:55;2.60;73.50
15879;DHT22;61999;51.514;14.614;2023-02-03T13:54:26;2.80;70.80
15879;DHT22;61999;51.514;14.614;2023-02-03T13:56:58;3.00;71.10
15879;DHT22;61999;51.514;14.614;2023-02-03T13:59:52;3.00;71.70
15879;DHT22;61999;51.514;14.614;2023-02-03T14:02:44;3.00;71.40
15879;DHT22;61999;51.514;14.614;2023-02-03T14:05:43;3.00;70.00
15879;DHT22;61999;51.514;14.614;2023-02-03T14:11:49;2.60;70.60
15879;DHT22;61999;51.514;14.614;2023-02-03T14:14:40;2.40;69.50
15879;DHT22;61999;51.514;14.614;2023-02-03T14:20:46;2.20;68.80
15879;DHT22;61999;51.514;14.614;2023-02-03T14:23:28;2.10;68.80
15879;DHT22;61999;51.514;14.614;2023-02-03T14:26:18;2.00;70.20
15879;DHT22;61999;51.514;14.614;2023-02-03T14:28:50;2.00;68.30
15879;DHT22;61999;51.514;14.614;2023-02-03T14:31:20;1.90;69.20
15879;DHT22;61999;51.514;14.614;2023-02-03T14:34:06;1.90;70.30
15879;DHT22;61999;51.514;14.614;2023-02-03T14:36:49;1.80;66.50
15879;DHT22;61999;51.514;14.614;2023-02-03T14:43:00;1.50;69.40
15879;DHT22;61999;51.514;14.614;2023-02-03T14:49:14;1.20;75.60
15879;DHT22;61999;51.514;14.614;2023-02-03T14:52:13;1.30;75.40
15879;DHT22;61999;51.514;14.614;2023-02-03T14:54:59;1.50;75.70
15879;DHT22;61999;51.514;14.614;2023-02-03T14:57:40;1.60;75.80
15879;DHT22;61999;51.514;14.614;2023-02-03T15:00:28;1.80;74.60
15879;DHT22;61999;51.514;14.614;2023-02-03T15:03:17;1.80;74.20
15879;DHT22;61999;51.514;14.614;2023-02-03T15:05:53;1.90;73.80
15879;DHT22;61999;51.514;14.614;2023-02-03T15:11:41;2.10;70.60
15879;DHT22;61999;51.514;14.614;2023-02-03T15:14:18;1.80;68.90
15879;DHT22;61999;51.514;14.614;2023-02-03T15:16:53;1.50;71.80
15879;DHT22;61999;51.514;14.614;2023-02-03T15:19:26;1.60;71.60
15879;DHT22;61999;51.514;14.614;2023-02-03T15:21:56;1.60;71.70
15879;DHT22;61999;51.514;14.614;2023-02-03T15:24:24;1.60;70.90
15879;DHT22;61999;51.514;14.614;2023-02-03T15:26:54;1.70;68.10
15879;DHT22;61999;51.514;14.614;2023-02-03T15:29:28;1.50;70.00
15879;DHT22;61999;51.514;14.614;2023-02-03T15:32:06;1.30;69.50
15879;DHT22;61999;51.514;14.614;2023-02-03T15:34:41;1.30;69.90
15879;DHT22;61999;51.514;14.614;2023-02-03T15:37:16;1.10;71.00
15879;DHT22;61999;51.514;14.614;2023-02-03T15:39:59;1.10;70.00
15879;DHT22;61999;51.514;14.614;2023-02-03T15:42:34;0.80;71.30
15879;DHT22;61999;51.514;14.614;2023-02-03T15:45:10;0.80;71.30
15879;DHT22;61999;51.514;14.614;2023-02-03T15:47:53;0.70;71.10
15879;DHT22;61999;51.514;14.614;2023-02-03T15:50:28;0.80;72.10
15879;DHT22;61999;51.514;14.614;2023-02-03T15:53:04;0.80;71.90
15879;DHT22;61999;51.514;14.614;2023-02-03T15:55:40;0.90;71.00
15879;DHT22;61999;51.514;14.614;2023-02-03T15:58:15;1.00;70.30
15879;DHT22;61999;51.514;14.614;2023-02-03T16:00:48;1.00;69.00
15879;DHT22;61999;51.514;14.614;2023-02-03T16:03:22;1.00;69.60
15879;DHT22;61999;51.514;14.614;2023-02-03T16:06:06;1.00;67.90
15879;DHT22;61999;51.514;14.614;2023-02-03T16:08:38;0.90;69.20
15879;DHT22;61999;51.514;14.614;2023-02-03T16:11:23;0.90;67.30
15879;DHT22;61999;51.514;14.614;2023-02-03T16:13:57;0.80;68.70
15879;DHT22;61999;51.514;14.614;2023-02-03T16:16:29;0.80;69.40
15879;DHT22;61999;51.514;14.614;2023-02-03T16:19:04;0.90;68.00
15879;DHT22;61999;51.514;14.614;2023-02-03T16:21:51;1.00;68.50
15879;DHT22;61999;51.514;14.614;2023-02-03T16:24:36;1.10;64.80
15879;DHT22;61999;51.514;14.614;2023-02-03T16:27:32;1.00;68.70
15879;DHT22;61999;51.514;14.614;2023-02-03T16:30:22;1.20;66.60
15879;DHT22;61999;51.514;14.614;2023-02-03T16:33:14;1.10;67.20